createdAt,value
2017-08-05T00:00:53.468Z,216
2017-08-05T00:02:00.951Z,215
2017-08-05T00:03:08.433Z,215
2017-08-05T00:04:15.917Z,215
2017-08-05T00:05:23.401Z,215
2017-08-05T00:06:31.183Z,215
2017-08-05T00:07:38.656Z,215
2017-08-05T00:08:46.157Z,215
2017-08-05T00:09:53.640Z,215
2017-08-05T00:11:01.130Z,215
2017-08-05T00:12:08.910Z,215
2017-08-05T00:13:16.382Z,216
2017-08-05T00:14:23.865Z,215
2017-08-05T00:15:31.351Z,215
2017-08-05T00:16:38.830Z,215
2017-08-05T00:17:46.612Z,215
2017-08-05T00:18:53.764Z,215
2017-08-05T00:20:01.246Z,215
2017-08-05T00:21:08.723Z,215
2017-08-05T00:22:16.201Z,216
2017-08-05T00:23:23.936Z,216
2017-08-05T00:24:31.410Z,216
2017-08-05T00:25:38.583Z,216
2017-08-05T00:26:46.058Z,215
2017-08-05T00:27:53.566Z,216
2017-08-05T00:29:01.342Z,216
2017-08-05T00:30:08.817Z,215
2017-08-05T00:31:16.298Z,215
2017-08-05T00:32:23.781Z,216
2017-08-05T00:33:31.262Z,216
2017-08-05T00:34:38.710Z,216
2017-08-05T00:35:46.186Z,216
2017-08-05T00:36:53.667Z,216
2017-08-05T00:38:01.149Z,215
2017-08-05T00:39:08.626Z,216
2017-08-05T00:40:16.457Z,215
2017-08-05T00:41:23.607Z,216
2017-08-05T00:42:30.770Z,215
2017-08-05T00:43:38.257Z,216
2017-08-05T00:44:45.747Z,215
2017-08-05T00:45:53.202Z,215
2017-08-05T00:47:00.681Z,215
2017-08-05T00:48:08.159Z,216
2017-08-05T00:49:15.642Z,215
2017-08-05T00:50:22.794Z,215
2017-08-05T00:51:30.568Z,216
2017-08-05T00:52:38.064Z,216
2017-08-05T00:53:45.545Z,216
2017-08-05T00:54:52.702Z,216
2017-08-05T00:55:59.849Z,216
2017-08-05T00:57:07.583Z,216
2017-08-05T00:58:15.070Z,216
2017-08-05T00:59:22.552Z,216
2017-08-05T01:00:30.030Z,215
2017-08-05T01:01:36.857Z,216
2017-08-05T01:02:44.889Z,216
2017-08-05T01:03:52.064Z,216
2017-08-05T01:04:59.547Z,216
2017-08-05T01:06:06.705Z,216
2017-08-05T01:07:14.191Z,216
2017-08-05T01:08:21.972Z,216
2017-08-05T01:09:29.126Z,215
2017-08-05T01:10:36.601Z,216
2017-08-05T01:11:43.751Z,216
2017-08-05T01:12:50.902Z,215
2017-08-05T01:13:58.691Z,216
2017-08-05T01:15:05.835Z,216
2017-08-05T01:16:13.309Z,216
2017-08-05T01:17:20.793Z,216
2017-08-05T01:18:27.941Z,216
2017-08-05T01:19:35.395Z,216
2017-08-05T01:20:42.870Z,216
2017-08-05T01:21:50.352Z,216
2017-08-05T01:22:57.508Z,216
2017-08-05T01:24:04.987Z,216
2017-08-05T01:25:12.720Z,216
2017-08-05T01:26:20.196Z,216
2017-08-05T01:27:27.677Z,216
2017-08-05T01:28:35.157Z,216
2017-08-05T01:29:42.638Z,216
2017-08-05T01:30:50.408Z,216
2017-08-05T01:31:57.884Z,216
2017-08-05T01:33:05.362Z,216
2017-08-05T01:34:12.508Z,216
2017-08-05T01:35:19.979Z,216
2017-08-05T01:36:27.763Z,216
2017-08-05T01:37:35.251Z,216
2017-08-05T01:38:42.729Z,216
2017-08-05T01:39:49.893Z,216
2017-08-05T01:40:57.368Z,216
2017-08-05T01:42:05.164Z,216
2017-08-05T01:43:12.640Z,216
2017-08-05T01:44:20.134Z,216
2017-08-05T01:45:27.616Z,216
2017-08-05T01:46:35.092Z,216
2017-08-05T01:47:42.494Z,216
2017-08-05T01:48:49.638Z,216
2017-08-05T01:49:57.126Z,216
2017-08-05T01:51:04.602Z,216
2017-08-05T01:52:12.077Z,216
2017-08-05T01:53:19.529Z,216
2017-08-05T01:54:27.018Z,216
2017-08-05T01:55:34.160Z,216
2017-08-05T01:56:41.646Z,216
2017-08-05T01:57:49.130Z,216
2017-08-05T01:58:56.952Z,216
2017-08-05T02:00:04.445Z,216
2017-08-05T02:01:11.937Z,216
2017-08-05T02:02:19.418Z,216
2017-08-05T02:03:26.898Z,216
2017-08-05T02:04:34.674Z,216
2017-08-05T02:05:41.828Z,216
2017-08-05T02:06:49.312Z,216
2017-08-05T02:07:57.013Z,216
2017-08-05T02:09:03.830Z,216
2017-08-05T02:10:11.562Z,216
2017-08-05T02:11:19.043Z,216
2017-08-05T02:12:26.515Z,216
2017-08-05T02:13:33.999Z,216
2017-08-05T02:14:41.478Z,216
2017-08-05T02:15:49.267Z,216
2017-08-05T02:16:56.747Z,216
2017-08-05T02:18:03.896Z,216
2017-08-05T02:19:11.039Z,216
2017-08-05T02:20:18.530Z,215
2017-08-05T02:21:26.314Z,216
2017-08-05T02:22:33.795Z,216
2017-08-05T02:23:40.610Z,216
2017-08-05T02:24:47.765Z,216
2017-08-05T02:25:55.251Z,216
2017-08-05T02:27:03.030Z,216
2017-08-05T02:28:10.512Z,216
2017-08-05T02:29:17.984Z,216
2017-08-05T02:30:25.473Z,216
2017-08-05T02:31:32.947Z,216
2017-08-05T02:32:40.726Z,216
2017-08-05T02:33:48.211Z,216
2017-08-05T02:34:55.692Z,216
2017-08-05T02:36:02.868Z,216
2017-08-05T02:37:10.344Z,216
2017-08-05T02:38:17.796Z,216
2017-08-05T02:39:25.297Z,216
2017-08-05T02:40:32.924Z,216
2017-08-05T02:41:40.090Z,216
2017-08-05T02:42:47.565Z,216
2017-08-05T02:43:55.365Z,216
2017-08-05T02:45:02.837Z,216
2017-08-05T02:46:10.316Z,216
2017-08-05T02:47:17.135Z,216
2017-08-05T02:48:24.615Z,216
2017-08-05T02:49:32.394Z,216
2017-08-05T02:50:39.538Z,216
2017-08-05T02:51:47.021Z,216
2017-08-05T02:52:54.186Z,216
2017-08-05T02:54:01.666Z,216
2017-08-05T02:55:09.445Z,216
2017-08-05T02:56:17.157Z,216
2017-08-05T02:57:24.635Z,216
2017-08-05T02:58:32.360Z,216
2017-08-05T02:59:39.842Z,216
2017-08-05T03:00:47.626Z,216
2017-08-05T03:01:54.780Z,216
2017-08-05T03:03:01.938Z,216
2017-08-05T03:04:09.418Z,216
2017-08-05T03:05:16.567Z,216
2017-08-05T03:06:24.016Z,216
2017-08-05T03:07:31.175Z,216
2017-08-05T03:08:38.653Z,216
2017-08-05T03:09:46.131Z,216
2017-08-05T03:10:53.621Z,216
2017-08-05T03:12:01.115Z,216
2017-08-05T03:13:08.598Z,217
2017-08-05T03:14:16.084Z,217
2017-08-05T03:15:23.563Z,217
2017-08-05T03:16:31.041Z,217
2017-08-05T03:17:38.841Z,216
2017-08-05T03:18:46.318Z,216
2017-08-05T03:19:53.836Z,216
2017-08-05T03:21:01.311Z,217
2017-08-05T03:22:08.463Z,217
2017-08-05T03:23:16.240Z,217
2017-08-05T03:24:23.724Z,216
2017-08-05T03:25:30.881Z,217
2017-08-05T03:26:38.364Z,216
2017-08-05T03:27:45.852Z,217
2017-08-05T03:28:53.649Z,217
2017-08-05T03:30:01.661Z,217
2017-08-05T03:31:09.159Z,217
2017-08-05T03:32:16.631Z,217
2017-08-05T03:33:24.304Z,217
2017-08-05T03:34:32.310Z,216
2017-08-05T03:35:39.791Z,217
2017-08-05T03:36:47.286Z,217
2017-08-05T03:37:54.787Z,216
2017-08-05T03:39:02.307Z,217
2017-08-05T03:40:10.084Z,217
2017-08-05T03:41:17.235Z,217
2017-08-05T03:42:24.712Z,216
2017-08-05T03:43:31.538Z,216
2017-08-05T03:44:39.008Z,217
2017-08-05T03:45:46.494Z,217
2017-08-05T03:46:53.971Z,216
2017-08-05T03:48:01.449Z,217
2017-08-05T03:49:09.254Z,216
2017-08-05T03:50:16.404Z,217
2017-08-05T03:51:24.186Z,216
2017-08-05T03:52:31.662Z,216
2017-08-05T03:53:39.372Z,217
2017-08-05T03:54:46.846Z,217
2017-08-05T03:55:54.565Z,216
2017-08-05T03:57:02.337Z,217
2017-08-05T03:58:09.817Z,217
2017-08-05T03:59:17.297Z,217
2017-08-05T04:00:24.441Z,217
2017-08-05T04:01:31.918Z,217
2017-08-05T04:02:39.694Z,216
2017-08-05T04:03:47.174Z,216
2017-08-05T04:04:54.652Z,217
2017-08-05T04:06:02.132Z,217
2017-08-05T04:07:09.612Z,216
2017-08-05T04:08:17.400Z,216
2017-08-05T04:09:24.884Z,216
2017-08-05T04:10:32.397Z,217
2017-08-05T04:11:39.548Z,216
2017-08-05T04:12:47.047Z,216
2017-08-05T04:13:54.487Z,216
2017-08-05T04:15:01.969Z,216
2017-08-05T04:16:09.450Z,216
2017-08-05T04:17:16.924Z,216
2017-08-05T04:18:24.071Z,217
2017-08-05T04:19:31.520Z,216
2017-08-05T04:20:38.994Z,217
2017-08-05T04:21:46.144Z,217
2017-08-05T04:22:53.288Z,217
2017-08-05T04:24:00.763Z,216
2017-08-05T04:25:08.541Z,216
2017-08-05T04:26:15.709Z,216
2017-08-05T04:27:23.186Z,216
2017-08-05T04:28:30.666Z,216
2017-08-05T04:29:38.172Z,217
2017-08-05T04:30:45.617Z,216
2017-08-05T04:31:53.097Z,216
2017-08-05T04:33:01.809Z,216
2017-08-05T04:34:09.290Z,216
2017-08-05T04:35:16.772Z,216
2017-08-05T04:36:24.547Z,216
2017-08-05T04:37:31.693Z,216
2017-08-05T04:38:39.171Z,216
2017-08-05T04:39:46.651Z,216
2017-08-05T04:40:53.800Z,216
2017-08-05T04:42:01.282Z,216
2017-08-05T04:43:08.764Z,216
2017-08-05T04:44:16.249Z,216
2017-08-05T04:45:23.698Z,216
2017-08-05T04:46:31.198Z,216
2017-08-05T04:47:38.679Z,216
2017-08-05T04:48:45.828Z,216
2017-08-05T04:49:52.637Z,216
2017-08-05T04:51:00.499Z,216
2017-08-05T04:52:07.983Z,216
2017-08-05T04:53:15.496Z,216
2017-08-05T04:54:22.965Z,216
2017-08-05T04:55:30.449Z,216
2017-08-05T04:56:38.238Z,216
2017-08-05T04:57:45.716Z,216
2017-08-05T04:58:53.211Z,216
2017-08-05T05:00:00.688Z,216
2017-08-05T05:01:08.171Z,216
2017-08-05T05:02:15.648Z,216
2017-08-05T05:03:22.788Z,216
2017-08-05T05:04:30.275Z,216
2017-08-05T05:05:37.437Z,216
2017-08-05T05:06:44.908Z,216
2017-08-05T05:07:52.364Z,216
2017-08-05T05:08:59.183Z,216
2017-08-05T05:10:06.958Z,216
2017-08-05T05:11:14.636Z,216
2017-08-05T05:12:22.118Z,216
2017-08-05T05:13:29.570Z,216
2017-08-05T05:14:37.051Z,216
2017-08-05T05:15:44.200Z,216
2017-08-05T05:16:51.679Z,216
2017-08-05T05:17:59.161Z,216
2017-08-05T05:19:08.447Z,216
2017-08-05T05:20:15.592Z,216
2017-08-05T05:21:22.744Z,216
2017-08-05T05:22:30.224Z,216
2017-08-05T05:23:37.376Z,216
2017-08-05T05:24:44.860Z,216
2017-08-05T05:25:52.333Z,216
2017-08-05T05:26:59.811Z,216
2017-08-05T05:28:07.286Z,216
2017-08-05T05:29:14.765Z,216
2017-08-05T05:30:22.546Z,216
2017-08-05T05:31:30.022Z,216
2017-08-05T05:32:37.498Z,216
2017-08-05T05:33:44.978Z,216
2017-08-05T05:34:52.456Z,216
2017-08-05T05:36:00.239Z,216
2017-08-05T05:37:07.714Z,216
2017-08-05T05:38:15.202Z,216
2017-08-05T05:39:22.689Z,215
2017-08-05T05:40:30.169Z,215
2017-08-05T05:41:37.647Z,216
2017-08-05T05:42:45.132Z,216
2017-08-05T05:43:52.614Z,216
2017-08-05T05:45:00.102Z,216
2017-08-05T05:46:07.595Z,216
2017-08-05T05:47:15.381Z,215
2017-08-05T05:48:22.888Z,216
2017-08-05T05:49:30.368Z,216
2017-08-05T05:50:37.844Z,215
2017-08-05T05:51:45.319Z,216
2017-08-05T05:52:52.820Z,216
2017-08-05T05:53:59.973Z,216
2017-08-05T05:55:07.127Z,216
2017-08-05T05:56:14.611Z,215
2017-08-05T05:57:21.762Z,216
2017-08-05T05:58:29.546Z,216
2017-08-05T05:59:37.027Z,216
2017-08-05T06:00:44.509Z,215
2017-08-05T06:01:51.985Z,215
2017-08-05T06:02:59.468Z,215
2017-08-05T06:04:07.248Z,216
2017-08-05T06:05:14.726Z,215
2017-08-05T06:06:21.876Z,216
2017-08-05T06:07:29.358Z,216
2017-08-05T06:08:36.832Z,216
2017-08-05T06:09:44.330Z,216
2017-08-05T06:10:51.808Z,215
2017-08-05T06:11:59.304Z,215
2017-08-05T06:13:06.785Z,215
2017-08-05T06:14:14.265Z,215
2017-08-05T06:15:22.045Z,215
2017-08-05T06:16:29.521Z,215
2017-08-05T06:17:37.005Z,215
2017-08-05T06:18:44.486Z,215
2017-08-05T06:19:51.966Z,215
2017-08-05T06:20:59.743Z,216
2017-08-05T06:22:07.222Z,215
2017-08-05T06:23:14.698Z,215
2017-08-05T06:24:22.175Z,215
2017-08-05T06:25:29.664Z,215
2017-08-05T06:26:37.074Z,215
2017-08-05T06:27:44.556Z,215
2017-08-05T06:28:51.713Z,216
2017-08-05T06:29:59.191Z,216
2017-08-05T06:31:06.665Z,216
2017-08-05T06:32:14.399Z,216
2017-08-05T06:33:21.871Z,216
2017-08-05T06:34:29.025Z,215
2017-08-05T06:35:36.181Z,216
2017-08-05T06:36:43.661Z,216
2017-08-05T06:37:51.451Z,216
2017-08-05T06:38:58.936Z,215
2017-08-05T06:40:06.468Z,215
2017-08-05T06:41:13.946Z,216
2017-08-05T06:42:21.421Z,215
2017-08-05T06:43:29.207Z,215
2017-08-05T06:44:36.684Z,215
2017-08-05T06:45:43.836Z,215
2017-08-05T06:46:51.328Z,215
2017-08-05T06:47:58.809Z,215
2017-08-05T06:49:06.586Z,216
2017-08-05T06:50:14.072Z,215
2017-08-05T06:51:21.560Z,215
2017-08-05T06:52:29.061Z,215
2017-08-05T06:53:36.546Z,215
2017-08-05T06:54:44.026Z,215
2017-08-05T06:55:51.501Z,215
2017-08-05T06:56:58.981Z,215
2017-08-05T06:58:06.771Z,214
2017-08-05T06:59:14.245Z,215
2017-08-05T07:00:21.728Z,215
2017-08-05T07:01:29.207Z,214
2017-08-05T07:02:36.688Z,215
2017-08-05T07:03:44.470Z,215
2017-08-05T07:04:51.630Z,215
2017-08-05T07:05:59.118Z,215
2017-08-05T07:07:06.286Z,214
2017-08-05T07:08:13.766Z,214
2017-08-05T07:09:21.550Z,215
2017-08-05T07:10:43.756Z,215
2017-08-05T07:11:51.239Z,215
2017-08-05T07:12:58.729Z,215
2017-08-05T07:14:05.895Z,215
2017-08-05T07:15:13.675Z,214
2017-08-05T07:16:21.156Z,215
2017-08-05T07:17:28.640Z,215
2017-08-05T07:18:36.122Z,215
2017-08-05T07:19:43.612Z,215
2017-08-05T07:20:51.399Z,215
2017-08-05T07:21:58.880Z,215
2017-08-05T07:23:06.365Z,215
2017-08-05T07:24:13.519Z,215
2017-08-05T07:25:20.668Z,215
2017-08-05T07:26:28.453Z,215
2017-08-05T07:27:35.941Z,214
2017-08-05T07:28:43.428Z,215
2017-08-05T07:29:50.916Z,215
2017-08-05T07:30:58.066Z,215
2017-08-05T07:32:05.478Z,215
2017-08-05T07:33:12.632Z,215
2017-08-05T07:34:20.116Z,215
2017-08-05T07:35:27.597Z,215
2017-08-05T07:36:35.093Z,215
2017-08-05T07:37:42.882Z,214
2017-08-05T07:38:50.362Z,215
2017-08-05T07:39:57.848Z,215
2017-08-05T07:41:05.047Z,215
2017-08-05T07:42:12.537Z,214
2017-08-05T07:43:20.332Z,214
2017-08-05T07:44:27.815Z,215
2017-08-05T07:45:35.307Z,214
2017-08-05T07:46:42.789Z,215
2017-08-05T07:47:50.291Z,215
2017-08-05T07:48:58.076Z,214
2017-08-05T07:50:05.559Z,215
2017-08-05T07:51:13.055Z,215
2017-08-05T07:52:20.217Z,215
2017-08-05T07:53:27.699Z,215
2017-08-05T07:54:35.154Z,214
2017-08-05T07:55:42.631Z,214
2017-08-05T07:56:49.795Z,214
2017-08-05T07:57:56.950Z,214
2017-08-05T07:59:04.429Z,214
2017-08-05T08:00:11.919Z,214
2017-08-05T08:01:19.406Z,214
2017-08-05T08:02:26.889Z,214
2017-08-05T08:03:34.377Z,214
2017-08-05T08:04:43.926Z,214
2017-08-05T08:05:51.414Z,214
2017-08-05T08:06:58.912Z,215
2017-08-05T08:08:06.398Z,214
2017-08-05T08:09:13.882Z,214
2017-08-05T08:10:21.662Z,214
2017-08-05T08:11:29.146Z,214
2017-08-05T08:12:36.630Z,214
2017-08-05T08:13:44.126Z,214
2017-08-05T08:14:51.623Z,214
2017-08-05T08:15:59.069Z,214
2017-08-05T08:17:06.227Z,214
2017-08-05T08:18:13.722Z,213
2017-08-05T08:19:21.203Z,214
2017-08-05T08:20:28.357Z,213
2017-08-05T08:21:36.092Z,214
2017-08-05T08:22:43.258Z,214
2017-08-05T08:23:50.741Z,214
2017-08-05T08:24:58.231Z,214
2017-08-05T08:26:05.718Z,214
2017-08-05T08:27:13.565Z,214
2017-08-05T08:28:21.047Z,214
2017-08-05T08:29:28.543Z,214
2017-08-05T08:30:35.372Z,214
2017-08-05T08:31:42.855Z,214
2017-08-05T08:32:50.637Z,214
2017-08-05T08:33:58.123Z,214
2017-08-05T08:35:05.625Z,214
2017-08-05T08:36:13.274Z,214
2017-08-05T08:37:20.761Z,214
2017-08-05T08:38:28.600Z,214
2017-08-05T08:39:36.085Z,214
2017-08-05T08:40:43.592Z,214
2017-08-05T08:41:51.080Z,214
2017-08-05T08:42:58.585Z,214
2017-08-05T08:44:06.375Z,214
2017-08-05T08:45:13.866Z,213
2017-08-05T08:46:21.361Z,214
2017-08-05T08:47:28.515Z,214
2017-08-05T08:48:35.674Z,214
2017-08-05T08:49:43.416Z,214
2017-08-05T08:50:50.911Z,213
2017-08-05T08:51:58.071Z,214
2017-08-05T08:53:05.566Z,214
2017-08-05T08:54:13.053Z,214
2017-08-05T08:55:20.834Z,214
2017-08-05T08:56:28.334Z,214
2017-08-05T08:57:35.826Z,214
2017-08-05T08:58:43.554Z,214
2017-08-05T08:59:51.286Z,214
2017-08-05T09:00:59.027Z,214
2017-08-05T09:02:06.517Z,214
2017-08-05T09:03:14.004Z,214
2017-08-05T09:04:21.489Z,214
2017-08-05T09:05:28.648Z,214
2017-08-05T09:06:36.390Z,214
2017-08-05T09:07:43.887Z,214
2017-08-05T09:08:51.043Z,214
2017-08-05T09:09:57.878Z,214
2017-08-05T09:11:05.360Z,213
2017-08-05T09:12:13.100Z,214
2017-08-05T09:13:20.581Z,214
2017-08-05T09:14:28.064Z,214
2017-08-05T09:15:35.260Z,214
2017-08-05T09:16:42.755Z,214
2017-08-05T09:17:50.537Z,214
2017-08-05T09:18:58.028Z,214
2017-08-05T09:20:05.513Z,214
2017-08-05T09:21:13.005Z,214
2017-08-05T09:22:20.494Z,214
2017-08-05T09:23:28.226Z,214
2017-08-05T09:24:35.711Z,214
2017-08-05T09:25:43.194Z,213
2017-08-05T09:26:50.690Z,213
2017-08-05T09:27:58.189Z,214
2017-08-05T09:29:05.656Z,214
2017-08-05T09:30:13.146Z,213
2017-08-05T09:31:20.630Z,214
2017-08-05T09:32:28.117Z,214
2017-08-05T09:33:35.609Z,214
2017-08-05T09:34:43.401Z,214
2017-08-05T09:35:50.886Z,214
2017-08-05T09:36:58.373Z,214
2017-08-05T09:38:05.885Z,214
2017-08-05T09:39:13.375Z,214
2017-08-05T09:40:21.168Z,214
2017-08-05T09:41:28.649Z,214
2017-08-05T09:42:36.134Z,214
2017-08-05T09:43:43.629Z,214
2017-08-05T09:44:51.127Z,214
2017-08-05T09:45:58.916Z,213
2017-08-05T09:47:06.409Z,214
2017-08-05T09:48:13.897Z,214
2017-08-05T09:49:21.404Z,214
2017-08-05T09:50:28.891Z,214
2017-08-05T09:51:36.675Z,213
2017-08-05T09:52:44.170Z,214
2017-08-05T09:53:51.652Z,214
2017-08-05T09:54:59.133Z,215
2017-08-05T09:56:06.620Z,216
2017-08-05T09:57:14.366Z,213
2017-08-05T09:58:21.879Z,213
2017-08-05T09:59:29.375Z,213
2017-08-05T10:00:36.524Z,213
2017-08-05T10:01:43.686Z,214
2017-08-05T10:02:51.178Z,213
2017-08-05T10:03:58.633Z,214
2017-08-05T10:05:05.809Z,214
2017-08-05T10:06:13.290Z,214
2017-08-05T10:07:20.451Z,214
2017-08-05T10:08:27.936Z,214
2017-08-05T10:09:35.399Z,214
2017-08-05T10:10:42.553Z,214
2017-08-05T10:11:49.707Z,213
2017-08-05T10:12:57.196Z,214
2017-08-05T10:14:04.686Z,213
2017-08-05T10:15:12.472Z,213
2017-08-05T10:16:19.980Z,214
2017-08-05T10:17:27.474Z,213
2017-08-05T10:18:34.963Z,213
2017-08-05T10:19:42.129Z,213
2017-08-05T10:20:49.926Z,213
2017-08-05T10:21:57.413Z,214
2017-08-05T10:23:04.904Z,213
2017-08-05T10:24:12.390Z,213
2017-08-05T10:25:19.881Z,213
2017-08-05T10:26:27.671Z,213
2017-08-05T10:27:35.157Z,213
2017-08-05T10:28:42.646Z,212
2017-08-05T10:29:50.134Z,213
2017-08-05T10:30:57.624Z,213
2017-08-05T10:32:05.415Z,212
2017-08-05T10:33:12.909Z,212
2017-08-05T10:34:20.586Z,212
2017-08-05T10:35:42.680Z,212
2017-08-05T10:36:50.168Z,212
2017-08-05T10:37:57.577Z,212
2017-08-05T10:39:05.058Z,212
2017-08-05T10:40:12.217Z,213
2017-08-05T10:41:19.701Z,213
2017-08-05T10:42:26.865Z,213
2017-08-05T10:43:34.602Z,213
2017-08-05T10:44:42.091Z,213
2017-08-05T10:45:49.606Z,213
2017-08-05T10:46:57.111Z,213
2017-08-05T10:48:04.844Z,213
2017-08-05T10:49:12.584Z,213
2017-08-05T10:50:20.088Z,213
2017-08-05T10:51:27.595Z,213
2017-08-05T10:52:35.084Z,214
2017-08-05T10:53:42.571Z,213
2017-08-05T10:54:50.002Z,214
2017-08-05T10:55:57.160Z,213
2017-08-05T10:57:04.317Z,213
2017-08-05T10:58:11.474Z,213
2017-08-05T10:59:18.635Z,213
2017-08-05T11:00:26.367Z,213
2017-08-05T11:01:33.853Z,213
2017-08-05T11:02:41.341Z,212
2017-08-05T11:03:48.505Z,212
2017-08-05T11:04:55.989Z,212
2017-08-05T11:06:03.410Z,211
2017-08-05T11:07:10.900Z,212
2017-08-05T11:08:18.391Z,212
2017-08-05T11:09:25.912Z,213
2017-08-05T11:10:33.068Z,213
2017-08-05T11:11:40.807Z,212
2017-08-05T11:12:48.293Z,212
2017-08-05T11:13:55.780Z,212
2017-08-05T11:15:02.942Z,212
2017-08-05T11:16:10.429Z,213
2017-08-05T11:17:18.213Z,213
2017-08-05T11:18:25.702Z,214
2017-08-05T11:19:33.201Z,212
2017-08-05T11:20:40.353Z,212
2017-08-05T11:21:47.848Z,213
2017-08-05T11:22:55.642Z,212
2017-08-05T11:24:03.148Z,212
2017-08-05T11:25:10.632Z,212
2017-08-05T11:26:17.791Z,212
2017-08-05T11:27:25.281Z,213
2017-08-05T11:28:33.019Z,212
2017-08-05T11:29:40.701Z,211
2017-08-05T11:30:48.223Z,212
2017-08-05T11:31:55.728Z,212
2017-08-05T11:33:03.225Z,212
2017-08-05T11:34:10.978Z,212
2017-08-05T11:35:18.464Z,212
2017-08-05T11:36:25.952Z,213
2017-08-05T11:37:33.439Z,213
2017-08-05T11:38:40.925Z,212
2017-08-05T11:39:48.385Z,212
2017-08-05T11:40:55.877Z,212
2017-08-05T11:42:03.038Z,212
2017-08-05T11:43:10.534Z,212
2017-08-05T11:44:18.016Z,212
2017-08-05T11:45:25.800Z,212
2017-08-05T11:46:33.291Z,212
2017-08-05T11:47:40.779Z,211
2017-08-05T11:49:02.861Z,212
2017-08-05T11:50:10.344Z,211
2017-08-05T11:51:18.081Z,211
2017-08-05T11:52:25.579Z,211
2017-08-05T11:53:33.072Z,212
2017-08-05T11:54:40.238Z,212
2017-08-05T11:55:47.397Z,212
2017-08-05T11:56:54.890Z,213
2017-08-05T11:58:02.406Z,212
2017-08-05T11:59:09.913Z,212
2017-08-05T12:00:17.429Z,212
2017-08-05T12:01:25.171Z,212
2017-08-05T12:02:32.660Z,212
2017-08-05T12:03:40.165Z,213
2017-08-05T12:04:47.670Z,213
2017-08-05T12:05:55.158Z,213
2017-08-05T12:07:02.677Z,213
2017-08-05T12:08:10.175Z,213
2017-08-05T12:09:17.665Z,213
2017-08-05T12:10:25.153Z,213
2017-08-05T12:11:32.641Z,212
2017-08-05T12:12:40.379Z,212
2017-08-05T12:13:47.544Z,212
2017-08-05T12:14:55.040Z,212
2017-08-05T12:16:02.534Z,212
2017-08-05T12:17:10.034Z,213
2017-08-05T12:18:18.068Z,213
2017-08-05T12:19:25.551Z,214
2017-08-05T12:20:33.034Z,214
2017-08-05T12:21:40.522Z,213
2017-08-05T12:22:47.677Z,213
2017-08-05T12:23:55.532Z,213
2017-08-05T12:25:03.035Z,213
2017-08-05T12:26:10.531Z,213
2017-08-05T12:27:18.018Z,213
2017-08-05T12:28:25.502Z,213
2017-08-05T12:29:33.296Z,212
2017-08-05T12:30:40.460Z,212
2017-08-05T12:31:47.949Z,212
2017-08-05T12:32:55.440Z,212
2017-08-05T12:34:02.273Z,212
2017-08-05T12:35:09.759Z,212
2017-08-05T12:36:17.552Z,213
2017-08-05T12:37:25.039Z,213
2017-08-05T12:38:32.525Z,213
2017-08-05T12:39:40.019Z,213
2017-08-05T12:40:47.517Z,213
2017-08-05T12:41:55.317Z,213
2017-08-05T12:43:02.820Z,213
2017-08-05T12:44:09.980Z,213
2017-08-05T12:45:17.472Z,213
2017-08-05T12:46:24.961Z,213
2017-08-05T12:47:32.754Z,213
2017-08-05T12:48:39.907Z,213
2017-08-05T12:49:47.405Z,213
2017-08-05T12:50:54.575Z,213
2017-08-05T12:52:02.069Z,213
2017-08-05T12:53:09.556Z,213
2017-08-05T12:54:17.066Z,213
2017-08-05T12:55:24.552Z,213
2017-08-05T12:56:32.294Z,213
2017-08-05T12:57:39.809Z,213
2017-08-05T12:58:47.321Z,213
2017-08-05T12:59:54.802Z,213
2017-08-05T13:01:02.292Z,213
2017-08-05T13:02:10.025Z,213
2017-08-05T13:03:17.516Z,213
2017-08-05T13:04:25.006Z,213
2017-08-05T13:05:32.493Z,214
2017-08-05T13:06:39.987Z,213
2017-08-05T13:07:47.783Z,214
2017-08-05T13:08:55.270Z,214
2017-08-05T13:10:03.626Z,214
2017-08-05T13:11:11.120Z,213
2017-08-05T13:12:18.622Z,213
2017-08-05T13:13:26.076Z,214
2017-08-05T13:14:33.572Z,214
2017-08-05T13:15:40.735Z,214
2017-08-05T13:16:48.218Z,213
2017-08-05T13:17:55.702Z,214
2017-08-05T13:19:03.491Z,214
2017-08-05T13:20:10.638Z,213
2017-08-05T13:21:18.123Z,214
2017-08-05T13:22:25.615Z,214
2017-08-05T13:23:32.443Z,214
2017-08-05T13:24:40.239Z,214
2017-08-05T13:25:47.732Z,213
2017-08-05T13:26:55.223Z,214
2017-08-05T13:28:02.380Z,214
2017-08-05T13:29:09.869Z,214
2017-08-05T13:30:17.654Z,196
2017-08-05T13:31:25.142Z,207
2017-08-05T13:32:32.631Z,208
2017-08-05T13:33:40.122Z,209
2017-08-05T13:34:47.277Z,209
2017-08-05T13:35:55.019Z,209
2017-08-05T13:37:02.551Z,211
2017-08-05T13:38:10.044Z,212
2017-08-05T13:39:17.534Z,214
2017-08-05T13:40:25.026Z,214
2017-08-05T13:41:32.820Z,215
2017-08-05T13:42:40.306Z,215
2017-08-05T13:43:47.802Z,215
2017-08-05T13:44:55.290Z,215
2017-08-05T13:46:02.777Z,215
2017-08-05T13:47:10.574Z,215
2017-08-05T13:48:17.726Z,215
2017-08-05T13:49:25.212Z,215
2017-08-05T13:50:32.696Z,216
2017-08-05T13:51:40.189Z,216
2017-08-05T13:52:47.684Z,215
2017-08-05T13:53:55.177Z,215
2017-08-05T13:55:02.963Z,215
2017-08-05T13:56:10.448Z,215
2017-08-05T13:57:17.608Z,215
2017-08-05T13:58:25.101Z,216
2017-08-05T13:59:32.587Z,215
2017-08-05T14:00:40.372Z,215
2017-08-05T14:01:47.873Z,215
2017-08-05T14:02:55.368Z,215
2017-08-05T14:04:02.867Z,215
2017-08-05T14:05:10.580Z,215
2017-08-05T14:06:18.373Z,216
2017-08-05T14:07:25.861Z,215
2017-08-05T14:08:33.344Z,215
2017-08-05T14:09:40.838Z,215
2017-08-05T14:10:48.322Z,215
2017-08-05T14:11:55.777Z,215
2017-08-05T14:13:03.269Z,215
2017-08-05T14:14:10.922Z,215
2017-08-05T14:15:18.407Z,214
2017-08-05T14:16:25.895Z,214
2017-08-05T14:17:33.638Z,214
2017-08-05T14:18:41.124Z,213
2017-08-05T14:19:48.304Z,213
2017-08-05T14:20:55.784Z,214
2017-08-05T14:22:03.269Z,214
2017-08-05T14:23:11.009Z,215
2017-08-05T14:24:18.492Z,214
2017-08-05T14:25:25.980Z,214
2017-08-05T14:26:33.464Z,215
2017-08-05T14:27:41.137Z,215
2017-08-05T14:28:48.601Z,214
2017-08-05T14:29:56.086Z,214
2017-08-05T14:31:03.575Z,214
2017-08-05T14:32:11.063Z,214
2017-08-05T14:33:18.547Z,214
2017-08-05T14:34:26.332Z,214
2017-08-05T14:35:33.821Z,214
2017-08-05T14:36:41.309Z,214
2017-08-05T14:37:48.794Z,215
2017-08-05T14:38:56.283Z,214
2017-08-05T14:40:04.071Z,214
2017-08-05T14:41:11.563Z,214
2017-08-05T14:42:19.054Z,214
2017-08-05T14:43:26.552Z,214
2017-08-05T14:44:34.048Z,215
2017-08-05T14:45:41.838Z,214
2017-08-05T14:46:49.326Z,215
2017-08-05T14:47:56.811Z,214
2017-08-05T14:49:03.977Z,214
2017-08-05T14:50:11.460Z,214
2017-08-05T14:51:19.248Z,213
2017-08-05T14:52:26.404Z,213
2017-08-05T14:53:33.894Z,213
2017-08-05T14:54:41.381Z,213
2017-08-05T14:55:48.872Z,213
2017-08-05T14:56:56.669Z,213
2017-08-05T14:58:04.158Z,214
2017-08-05T14:59:11.649Z,215
2017-08-05T15:00:19.141Z,215
2017-08-05T15:01:26.631Z,215
2017-08-05T15:02:34.414Z,214
2017-08-05T15:03:41.898Z,214
2017-08-05T15:04:49.390Z,214
2017-08-05T15:05:56.886Z,215
2017-08-05T15:07:04.371Z,216
2017-08-05T15:08:12.177Z,216
2017-08-05T15:09:19.343Z,216
2017-08-05T15:10:26.174Z,215
2017-08-05T15:11:33.662Z,215
2017-08-05T15:12:41.157Z,215
2017-08-05T15:13:48.951Z,214
2017-08-05T15:14:56.438Z,215
2017-08-05T15:16:03.937Z,215
2017-08-05T15:17:11.095Z,215
2017-08-05T15:18:18.579Z,215
2017-08-05T15:19:26.382Z,216
2017-08-05T15:20:33.869Z,216
2017-08-05T15:21:41.357Z,216
2017-08-05T15:22:48.841Z,216
2017-08-05T15:23:56.326Z,216
2017-08-05T15:25:03.462Z,217
2017-08-05T15:26:10.948Z,216
2017-08-05T15:27:18.442Z,217
2017-08-05T15:28:25.933Z,217
2017-08-05T15:29:33.426Z,217
2017-08-05T15:30:40.639Z,217